Time;durP1;ratioP1;P1;durP2;ratioP2;P2;SDS_P1;SDS_P2;PMS_P1;PMS_P2;Temp;Humidity;BMP_temperature;BMP_pressure;BME280_temperature;BME280_humidity;BME280_pressure;Samples;Min_cycle;Max_cycle;Signal;HPM_P1;HPM_P2
2022/12/28 00:00:55;;;;;;;;;;;;;;;25.68;50.06;97980.75;592730;238;65049;-72
2022/12/28 00:03:23;;;;;;;;;;;;;;;25.67;50.07;97983.70;592639;238;64728;-72
2022/12/28 00:05:50;;;;;;;;;;;;;;;25.66;49.14;97984.80;592808;238;66811;-72
2022/12/28 00:08:18;;;;;;;;;;;;;;;25.66;50.17;97990.18;592632;238;64933;-71
2022/12/28 00:10:45;;;;;;;;;;;;;;;25.65;49.68;97991.27;592276;238;67298;-71
2022/12/28 00:13:13;;;;;;;;;;;;;;;25.63;50.48;97996.13;592774;238;66878;-72
2022/12/28 00:15:40;;;;;;;;;;;;;;;25.63;50.20;97999.62;592681;238;64956;-72
2022/12/28 00:18:07;;;;;;;;;;;;;;;25.63;49.58;98001.51;592150;238;67073;-72
2022/12/28 00:20:35;;;;;;;;;;;;;;;25.62;49.90;98000.70;592785;238;67028;-71
2022/12/28 00:23:05;;;;;;;;;;;;;;;25.60;49.97;98005.56;592404;238;62781;-71
2022/12/28 00:25:36;;;;;;;;;;;;;;;25.59;50.08;98003.13;592404;238;66867;-72
2022/12/28 00:28:03;;;;;;;;;;;;;;;25.59;50.03;98003.13;592420;238;66893;-73
2022/12/28 00:30:30;;;;;;;;;;;;;;;25.58;50.54;98014.98;592574;238;65105;-72
2022/12/28 00:32:58;;;;;;;;;;;;;;;25.56;50.42;98009.87;592151;238;67727;-72
2022/12/28 00:35:25;;;;;;;;;;;;;;;25.56;50.54;98011.77;592689;238;66853;-72
2022/12/28 00:37:54;;;;;;;;;;;;;;;25.55;51.24;98018.23;592986;238;64979;-72
2022/12/28 00:40:22;;;;;;;;;;;;;;;25.52;50.10;98014.21;592570;238;66772;-72
2022/12/28 00:42:49;;;;;;;;;;;;;;;25.54;51.00;98020.13;592872;238;66777;-72
2022/12/28 00:45:17;;;;;;;;;;;;;;;25.52;50.05;98024.97;592549;238;65309;-72
2022/12/28 00:47:44;;;;;;;;;;;;;;;25.52;49.71;98018.80;592272;238;67722;-72
2022/12/28 00:50:12;;;;;;;;;;;;;;;25.51;49.63;98022.55;592512;238;66817;-72
2022/12/28 00:52:39;;;;;;;;;;;;;;;25.50;50.72;98032.52;592673;238;65178;-72
2022/12/28 00:55:07;;;;;;;;;;;;;;;25.50;50.30;98031.71;592330;238;67110;-72
2022/12/28 00:57:36;;;;;;;;;;;;;;;25.50;51.45;98037.09;592649;238;65121;-72
2022/12/28 01:00:04;;;;;;;;;;;;;;;25.46;49.91;98034.96;592461;238;62358;-72
2022/12/28 01:02:31;;;;;;;;;;;;;;;25.46;50.75;98026.89;592543;238;67089;-72
2022/12/28 01:04:59;;;;;;;;;;;;;;;25.45;49.83;98033.36;592319;238;66971;-72
2022/12/28 01:07:26;;;;;;;;;;;;;;;25.45;50.10;98038.74;592088;238;65978;-72
2022/12/28 01:09:54;;;;;;;;;;;;;;;25.44;50.47;98031.73;592629;238;67283;-72
2022/12/28 01:12:21;;;;;;;;;;;;;;;25.43;50.64;98035.52;592614;238;67783;-72
2022/12/28 01:14:49;;;;;;;;;;;;;;;25.42;51.25;98039.27;592810;238;64934;-72
2022/12/28 01:17:17;;;;;;;;;;;;;;;25.41;51.53;98034.17;592635;238;66819;-72
2022/12/28 01:19:44;;;;;;;;;;;;;;;25.41;50.69;98045.74;592489;238;66835;-72
2022/12/28 01:22:13;;;;;;;;;;;;;;;25.39;50.16;98034.44;592146;238;65031;-71
2022/12/28 01:24:40;;;;;;;;;;;;;;;25.39;49.65;98047.89;592758;238;65201;-71
2022/12/28 01:27:08;;;;;;;;;;;;;;;25.38;53.08;98051.67;592500;238;66912;-72
2022/12/28 01:29:35;;;;;;;;;;;;;;;25.37;51.40;98057.31;592267;238;65116;-72
2022/12/28 01:32:03;;;;;;;;;;;;;;;25.36;49.72;98051.14;592876;238;67285;-72
2022/12/28 01:34:30;;;;;;;;;;;;;;;25.36;50.45;98059.20;592133;238;66907;-72
2022/12/28 01:36:58;;;;;;;;;;;;;;;25.35;50.26;98056.81;592482;238;65219;-72
2022/12/28 01:39:27;;;;;;;;;;;;;;;25.34;50.95;98058.67;592006;238;67875;-72
2022/12/28 01:41:55;;;;;;;;;;;;;;;25.32;51.41;98055.47;592843;238;64273;-72
2022/12/28 01:44:27;;;;;;;;;;;;;;;25.32;51.41;98058.16;592144;238;64898;-73
2022/12/28 01:46:59;;;;;;;;;;;;;;;25.31;51.20;98067.30;592522;238;67080;-73
2022/12/28 01:49:31;;;;;;;;;;;;;;;25.30;51.92;98067.59;590351;237;67952;-71
2022/12/28 01:52:03;;;;;;;;;;;;;;;25.29;51.33;98064.09;589407;237;64958;-72
2022/12/28 01:54:32;;;;;;;;;;;;;;;25.27;52.07;98063.55;589785;237;67217;-72
2022/12/28 01:56:59;;;;;;;;;;;;;;;25.28;51.00;98070.53;589574;237;64816;-72
2022/12/28 01:59:28;;;;;;;;;;;;;;;25.27;51.20;98065.45;589259;239;65010;-72
2022/12/28 02:01:56;;;;;;;;;;;;;;;25.26;51.18;98069.99;589663;237;64584;-72
2022/12/28 02:04:24;;;;;;;;;;;;;;;25.24;50.28;98066.80;589261;239;64555;-72
2022/12/28 02:06:52;;;;;;;;;;;;;;;25.23;50.72;98062.47;589748;238;65112;-72
2022/12/28 02:09:21;;;;;;;;;;;;;;;25.23;51.74;98057.09;589583;237;67079;-72
2022/12/28 02:11:49;;;;;;;;;;;;;;;25.22;51.76;98052.80;589530;237;67302;-72
2022/12/28 02:14:18;;;;;;;;;;;;;;;25.21;51.85;98051.20;589259;241;65049;-72
2022/12/28 02:16:46;;;;;;;;;;;;;;;25.20;51.35;98057.64;589256;239;67070;-72
2022/12/28 02:19:15;;;;;;;;;;;;;;;25.19;51.97;98058.73;589619;237;67057;-72
2022/12/28 02:21:57;;;;;;;;;;;;;;;25.17;52.17;98056.30;589710;237;64984;-71
2022/12/28 02:24:42;;;;;;;;;;;;;;;25.17;52.80;98060.88;589557;237;64842;-71
2022/12/28 02:27:17;;;;;;;;;;;;;;;25.16;52.36;98061.97;589609;237;66646;-72
2022/12/28 02:29:49;;;;;;;;;;;;;;;25.15;53.53;98063.83;589391;239;65163;-72
2022/12/28 02:32:18;;;;;;;;;;;;;;;25.13;51.95;98052.53;589460;237;66761;-72
2022/12/28 02:34:50;;;;;;;;;;;;;;;25.14;54.01;98058.71;589285;239;66949;-72
2022/12/28 02:37:28;;;;;;;;;;;;;;;25.12;52.05;98055.48;589159;241;65976;-72
2022/12/28 02:40:00;;;;;;;;;;;;;;;25.10;53.24;98063.84;589567;237;66051;-72
2022/12/28 02:42:28;;;;;;;;;;;;;;;25.09;54.02;98062.20;589927;237;66778;-73
2022/12/28 02:50:33;;;;;;;;;;;;;;;25.08;53.14;98059.81;594159;239;66994;-71
2022/12/28 02:53:03;;;;;;;;;;;;;;;25.06;53.75;98060.06;586440;238;62597;-72
2022/12/28 02:56:07;;;;;;;;;;;;;;;25.05;52.42;98055.78;593907;239;67658;-73
2022/12/28 02:58:53;;;;;;;;;;;;;;;25.04;52.30;98067.59;594230;238;68431;-71
2022/12/28 03:01:37;;;;;;;;;;;;;;;25.03;52.76;98061.41;594194;239;65090;-72
2022/12/28 03:04:18;;;;;;;;;;;;;;;25.02;53.18;98073.27;594209;239;66932;-72
2022/12/28 03:09:40;;;;;;;;;;;;;;;24.99;53.65;98072.98;594258;239;65243;-71
2022/12/28 03:12:12;;;;;;;;;;;;;;;24.99;51.98;98071.13;594208;239;67545;-71
2022/12/28 03:14:43;;;;;;;;;;;;;;;24.97;51.99;98070.58;590952;239;67449;-73
2022/12/28 03:31:08;;;;;;;;;;;;;;;24.93;53.58;98084.83;594228;239;67311;-71
2022/12/28 03:33:44;;;;;;;;;;;;;;;24.90;51.93;98082.69;594230;238;45037;-72
2022/12/28 03:36:14;;;;;;;;;;;;;;;24.89;52.51;98095.33;593933;238;64815;-72
2022/12/28 03:38:46;;;;;;;;;;;;;;;24.89;53.28;98089.14;594195;239;67397;-72
2022/12/28 03:41:15;;;;;;;;;;;;;;;24.88;55.33;98091.03;594109;238;62899;-72
2022/12/28 03:43:44;;;;;;;;;;;;;;;24.87;53.58;98093.98;594207;239;67640;-72
2022/12/28 03:46:15;;;;;;;;;;;;;;;24.87;53.93;98099.36;593891;238;49227;-72
2022/12/28 03:48:43;;;;;;;;;;;;;;;24.85;53.39;98094.23;593512;238;64933;-71
2022/12/28 03:51:13;;;;;;;;;;;;;;;24.85;53.51;98093.44;592851;238;63998;-72
2022/12/28 03:53:44;;;;;;;;;;;;;;;24.84;52.99;98098.02;592814;238;67024;-71
2022/12/28 03:56:15;;;;;;;;;;;;;;;24.84;53.05;98094.52;592385;236;63668;-72
2022/12/28 03:58:44;;;;;;;;;;;;;;;24.83;54.79;98093.73;592569;238;67938;-73
2022/12/28 04:01:13;;;;;;;;;;;;;;;24.83;54.50;98085.66;592849;238;68028;-72
2022/12/28 04:03:41;;;;;;;;;;;;;;;24.82;54.43;98094.78;592178;238;63142;-73
2022/12/28 04:06:11;;;;;;;;;;;;;;;24.81;54.43;98103.94;592729;238;67167;-73
2022/12/28 04:08:39;;;;;;;;;;;;;;;24.80;53.38;98105.82;592142;238;66766;-72
2022/12/28 04:11:07;;;;;;;;;;;;;;;24.80;53.99;98107.71;592437;238;62744;-73
2022/12/28 04:13:34;;;;;;;;;;;;;;;24.79;54.20;98106.08;592797;238;67128;-73
2022/12/28 04:16:11;;;;;;;;;;;;;;;24.77;53.71;98100.98;592141;238;47990;-73
2022/12/28 04:18:40;;;;;;;;;;;;;;;24.76;54.25;98098.55;593173;238;62531;-73
2022/12/28 04:21:09;;;;;;;;;;;;;;;24.75;54.35;98100.44;592713;238;67160;-73
2022/12/28 04:23:38;;;;;;;;;;;;;;;24.75;53.24;98110.39;591845;238;67206;-73
2022/12/28 04:26:16;;;;;;;;;;;;;;;24.75;53.74;98102.33;592222;238;65061;-72
2022/12/28 04:28:45;;;;;;;;;;;;;;;24.74;52.69;98108.77;592438;238;67635;-72
2022/12/28 04:31:30;;;;;;;;;;;;;;;24.72;53.25;98109.05;592819;238;47011;-72
2022/12/28 04:34:06;;;;;;;;;;;;;;;24.72;53.05;98110.94;592332;238;43866;-72
2022/12/28 04:36:35;;;;;;;;;;;;;;;24.72;54.12;98105.56;593000;238;44720;-73
2022/12/28 04:39:03;;;;;;;;;;;;;;;24.70;53.30;98111.19;592459;238;63846;-73
2022/12/28 04:41:30;;;;;;;;;;;;;;;24.70;54.71;98110.39;591841;238;62898;-73
2022/12/28 04:43:58;;;;;;;;;;;;;;;24.69;54.15;98117.66;592753;238;64562;-73
2022/12/28 04:46:25;;;;;;;;;;;;;;;24.67;53.56;98111.73;592843;238;64811;-73
2022/12/28 04:48:53;;;;;;;;;;;;;;;24.66;53.14;98112.78;592602;238;64922;-73
2022/12/28 04:51:22;;;;;;;;;;;;;;;24.66;54.87;98104.72;592728;238;66731;-73
2022/12/28 04:53:49;;;;;;;;;;;;;;;24.65;54.65;98102.32;592705;238;71415;-73
2022/12/28 04:56:17;;;;;;;;;;;;;;;24.64;55.32;98106.09;592586;238;64877;-73
2022/12/28 04:58:48;;;;;;;;;;;;;;;24.64;53.46;98100.72;592797;238;64535;-73
2022/12/28 05:01:17;;;;;;;;;;;;;;;24.63;53.96;98107.16;592915;238;64776;-72
2022/12/28 05:03:46;;;;;;;;;;;;;;;24.63;55.75;98105.27;592223;238;65107;-73
2022/12/28 05:06:15;;;;;;;;;;;;;;;24.60;53.53;98097.74;592318;238;66887;-73
2022/12/28 05:08:43;;;;;;;;;;;;;;;24.59;53.69;98098.83;592643;238;66861;-73
2022/12/28 05:11:12;;;;;;;;;;;;;;;24.59;55.36;98090.77;592594;238;64876;-73
2022/12/28 05:13:39;;;;;;;;;;;;;;;24.58;55.12;98092.66;592680;238;67170;-73
2022/12/28 05:16:08;;;;;;;;;;;;;;;24.58;54.21;98097.20;592376;238;66914;-73
2022/12/28 05:18:35;;;;;;;;;;;;;;;24.56;55.06;98089.42;592574;238;65018;-72
2022/12/28 05:21:08;;;;;;;;;;;;;;;24.56;53.67;98080.55;592448;238;67093;-72
2022/12/28 05:23:36;;;;;;;;;;;;;;;24.55;54.20;98087.81;591988;238;64582;-73
2022/12/28 05:26:04;;;;;;;;;;;;;;;24.55;55.23;98093.19;592551;238;64898;-72
2022/12/28 05:28:32;;;;;;;;;;;;;;;24.53;54.46;98089.95;592319;238;67089;-73
2022/12/28 05:31:01;;;;;;;;;;;;;;;24.53;54.53;98083.78;592796;238;66886;-73
2022/12/28 05:33:32;;;;;;;;;;;;;;;24.52;53.77;98085.64;592137;238;65023;-73
2022/12/28 05:36:03;;;;;;;;;;;;;;;24.52;54.45;98090.21;592339;238;67372;-71
2022/12/28 05:38:31;;;;;;;;;;;;;;;24.52;53.80;98095.59;592891;238;64803;-71
2022/12/28 05:41:09;;;;;;;;;;;;;;;24.50;55.42;98100.41;592102;238;62620;-71
2022/12/28 05:43:36;;;;;;;;;;;;;;;24.48;53.56;98103.39;592420;238;64889;-72
2022/12/28 05:46:05;;;;;;;;;;;;;;;24.48;54.51;98119.51;592419;238;64866;-72
2022/12/28 05:48:33;;;;;;;;;;;;;;;24.47;54.46;98119.77;591540;238;62833;-72
2022/12/28 05:51:03;;;;;;;;;;;;;;;24.46;55.07;98116.27;589208;241;67263;-72
2022/12/28 05:53:31;;;;;;;;;;;;;;;24.46;55.60;98123.53;588756;240;66745;-72
2022/12/28 05:56:06;;;;;;;;;;;;;;;24.46;56.80;98120.84;589186;241;64965;-71
2022/12/28 05:58:33;;;;;;;;;;;;;;;24.45;55.50;98124.63;589188;241;64876;-72
2022/12/28 06:01:04;;;;;;;;;;;;;;;24.43;54.16;98132.91;589174;241;64987;-72
2022/12/28 06:03:32;;;;;;;;;;;;;;;24.43;55.44;98138.27;589202;241;64868;-72
2022/12/28 06:06:03;;;;;;;;;;;;;;;24.42;55.59;98136.67;589205;241;67109;-72
2022/12/28 06:08:31;;;;;;;;;;;;;;;24.41;53.76;98134.23;589204;241;67183;-72
2022/12/28 06:11:00;;;;;;;;;;;;;;;24.42;57.00;98135.84;589195;241;62783;-72
2022/12/28 06:13:27;;;;;;;;;;;;;;;24.39;56.17;98131.84;589168;241;67310;-72
2022/12/28 06:15:55;;;;;;;;;;;;;;;24.39;54.44;98145.27;589200;241;66724;-73
2022/12/28 06:18:23;;;;;;;;;;;;;;;24.38;54.88;98139.06;589244;241;64883;-72
2022/12/28 06:20:51;;;;;;;;;;;;;;;24.37;54.60;98137.46;589187;241;66864;-72
2022/12/28 06:23:18;;;;;;;;;;;;;;;24.36;56.20;98146.61;589185;241;66939;-72
2022/12/28 06:25:46;;;;;;;;;;;;;;;24.37;55.24;98155.47;589188;241;64887;-72
2022/12/28 06:28:13;;;;;;;;;;;;;;;24.36;56.29;98153.83;589184;241;65201;-72
2022/12/28 06:30:40;;;;;;;;;;;;;;;24.34;56.15;98153.31;589231;241;64864;-72
2022/12/28 06:33:08;;;;;;;;;;;;;;;24.33;55.47;98152.48;589220;241;64969;-72
2022/12/28 06:35:37;;;;;;;;;;;;;;;24.33;55.98;98159.73;589168;241;66644;-72
2022/12/28 06:38:04;;;;;;;;;;;;;;;24.33;55.66;98151.68;589142;239;64901;-72
2022/12/28 06:40:32;;;;;;;;;;;;;;;24.31;55.54;98149.28;589195;241;65216;-72
2022/12/28 06:42:59;;;;;;;;;;;;;;;24.31;56.09;98145.79;589202;241;67083;-72
2022/12/28 06:45:27;;;;;;;;;;;;;;;24.31;56.78;98146.59;589226;241;66888;-72
2022/12/28 06:47:54;;;;;;;;;;;;;;;24.29;54.17;98143.36;589539;238;62729;-72
2022/12/28 06:50:22;;;;;;;;;;;;;;;24.29;55.54;98147.92;594199;239;67136;-72
2022/12/28 06:52:49;;;;;;;;;;;;;;;24.28;55.62;98149.81;594199;239;67145;-72
2022/12/28 06:55:17;;;;;;;;;;;;;;;24.27;54.22;98153.55;594232;239;64973;-73
2022/12/28 06:57:44;;;;;;;;;;;;;;;24.27;54.53;98155.44;594260;239;67065;-72
2022/12/28 07:00:12;;;;;;;;;;;;;;;24.27;56.08;98152.75;594163;239;66921;-72
2022/12/28 07:02:39;;;;;;;;;;;;;;;24.26;54.43;98148.45;593638;239;66059;-73
2022/12/28 07:05:07;;;;;;;;;;;;;;;24.25;54.76;98157.57;594211;239;67181;-72
2022/12/28 07:07:34;;;;;;;;;;;;;;;24.25;54.31;98155.69;594213;239;66684;-71
2022/12/28 07:10:02;;;;;;;;;;;;;;;24.24;55.15;98155.97;597931;236;62869;-71
2022/12/28 07:12:29;;;;;;;;;;;;;;;24.23;56.85;98176.66;600298;236;64897;-69
2022/12/28 07:14:59;;;;;;;;;;;;;;;24.23;55.56;98167.80;600303;235;65128;-73
2022/12/28 07:17:26;;;;;;;;;;;;;;;24.21;56.49;98161.88;600291;236;62709;-73
2022/12/28 07:19:54;;;;;;;;;;;;;;;24.21;55.95;98157.30;600215;236;67106;-73
2022/12/28 07:22:22;;;;;;;;;;;;;;;24.21;54.91;98151.13;600303;236;66988;-72
2022/12/28 07:24:49;;;;;;;;;;;;;;;24.20;54.90;98144.95;600261;236;64874;-74
2022/12/28 07:27:17;;;;;;;;;;;;;;;24.22;57.19;98163.47;600351;236;67069;-74
2022/12/28 07:29:44;;;;;;;;;;;;;;;24.19;55.26;98159.44;600412;236;66893;-75
2022/12/28 07:32:11;;;;;;;;;;;;;;;24.18;55.54;98154.34;600296;236;66752;-74
2022/12/28 07:34:39;;;;;;;;;;;;;;;24.16;55.15;98149.22;600308;236;66734;-74
2022/12/28 07:37:12;;;;;;;;;;;;;;;24.16;55.45;98143.85;600377;236;66919;-74
2022/12/28 07:39:40;;;;;;;;;;;;;;;24.13;54.80;98142.50;600128;236;65316;-74
2022/12/28 07:42:10;;;;;;;;;;;;;;;24.13;54.12;98129.07;600381;236;67398;-72
2022/12/28 07:44:44;;;;;;;;;;;;;;;24.13;54.39;98139.81;600288;236;64389;-69
2022/12/28 07:47:08;;;;;;;;;;;;;;;24.12;55.31;98143.58;600363;235;62842;-72
2022/12/28 07:49:35;;;;;;;;;;;;;;;24.12;55.49;98146.27;600392;236;64793;-73
2022/12/28 07:52:03;;;;;;;;;;;;;;;24.11;54.07;98147.32;600368;236;64964;-74
2022/12/28 07:54:30;;;;;;;;;;;;;;;24.11;55.68;98147.32;600203;236;62772;-72
2022/12/28 07:56:58;;;;;;;;;;;;;;;24.09;54.92;98154.86;599953;236;66812;-72
2022/12/28 07:59:27;;;;;;;;;;;;;;;24.09;54.45;98143.28;600245;236;67833;-72
2022/12/28 08:01:54;;;;;;;;;;;;;;;24.08;55.04;98142.48;600409;235;64950;-71
2022/12/28 08:04:22;;;;;;;;;;;;;;;24.08;55.43;98152.42;600389;235;67023;-74
2022/12/28 08:06:49;;;;;;;;;;;;;;;24.08;54.36;98163.16;600315;236;66632;-69
2022/12/28 08:09:17;;;;;;;;;;;;;;;24.05;54.08;98148.38;600326;236;64896;-68
2022/12/28 08:11:45;;;;;;;;;;;;;;;24.08;55.89;98147.05;600300;236;67284;-67
2022/12/28 08:14:13;;;;;;;;;;;;;;;24.07;54.78;98158.88;600395;236;67153;-79
2022/12/28 08:16:41;;;;;;;;;;;;;;;24.06;55.27;98151.88;600355;236;64902;-73
2022/12/28 08:19:09;;;;;;;;;;;;;;;24.06;54.88;98154.55;600400;236;64833;-72
2022/12/28 08:21:38;;;;;;;;;;;;;;;24.04;54.79;98145.98;600324;236;63389;-70
2022/12/28 08:24:06;;;;;;;;;;;;;;;24.04;55.12;98148.66;600391;236;64871;-71
2022/12/28 08:26:35;;;;;;;;;;;;;;;24.03;54.42;98145.14;600343;236;67260;-69
2022/12/28 08:29:06;;;;;;;;;;;;;;;24.04;55.67;98148.66;593458;236;48387;-69
2022/12/28 08:31:35;;;;;;;;;;;;;;;24.04;56.59;98149.46;593396;237;64920;-73
2022/12/28 08:34:05;;;;;;;;;;;;;;;24.04;54.99;98145.98;594387;237;66889;-72
2022/12/28 08:36:34;;;;;;;;;;;;;;;24.05;53.80;98150.27;594459;237;64773;-72
2022/12/28 08:39:02;;;;;;;;;;;;;;;24.04;55.71;98141.41;594512;237;65220;-72
2022/12/28 08:41:30;;;;;;;;;;;;;;;24.05;55.10;98134.16;593939;237;67054;-72
2022/12/28 08:43:57;;;;;;;;;;;;;;;24.05;56.96;98131.47;594379;237;66722;-75
2022/12/28 08:46:27;;;;;;;;;;;;;;;24.05;56.17;98137.64;596287;237;62772;-77
2022/12/28 08:48:55;;;;;;;;;;;;;;;24.05;55.49;98123.41;596146;237;64270;-73
2022/12/28 08:51:24;;;;;;;;;;;;;;;24.06;56.46;98133.91;596519;236;66599;-74
2022/12/28 08:53:52;;;;;;;;;;;;;;;24.07;55.33;98123.96;593193;236;65240;-74
2022/12/28 08:56:21;;;;;;;;;;;;;;;24.08;54.94;98129.05;592633;239;65748;-72
2022/12/28 08:58:49;;;;;;;;;;;;;;;24.09;54.98;98135.23;593269;239;66667;-75
2022/12/28 09:01:27;;;;;;;;;;;;;;;24.06;56.29;98125.84;595804;236;64658;-75
2022/12/28 09:03:56;;;;;;;;;;;;;;;24.04;54.38;98121.81;596262;235;66771;-77
2022/12/28 09:06:25;;;;;;;;;;;;;;;24.04;56.05;98121.81;596537;236;66804;-75
2022/12/28 09:08:54;;;;;;;;;;;;;;;24.03;55.03;98120.17;596117;236;66044;-81
2022/12/28 09:11:21;;;;;;;;;;;;;;;24.03;56.27;98117.49;595671;236;64871;-74
2022/12/28 09:13:53;;;;;;;;;;;;;;;24.01;55.49;98115.09;593107;239;64774;-74
2022/12/28 09:16:20;;;;;;;;;;;;;;;24.01;54.16;98119.63;592778;239;62983;-73
2022/12/28 09:18:47;;;;;;;;;;;;;;;24.00;54.07;98110.77;592906;239;67354;-79
2022/12/28 09:21:18;;;;;;;;;;;;;;;24.02;55.79;98110.52;592946;239;67704;-74
2022/12/28 09:23:46;;;;;;;;;;;;;;;24.01;55.24;98108.88;592982;239;64943;-78
2022/12/28 09:26:15;;;;;;;;;;;;;;;24.01;54.64;98101.66;593973;236;67029;-74
2022/12/28 09:28:47;;;;;;;;;;;;;;;24.02;56.92;98105.15;598017;236;66876;-70
2022/12/28 09:31:14;;;;;;;;;;;;;;;24.00;54.86;98102.71;595020;236;62974;-72
2022/12/28 09:36:29;;;;;;;;;;;;;;;24.03;55.02;98094.13;593087;239;64610;-76
2022/12/28 09:38:58;;;;;;;;;;;;;;;24.06;54.75;98090.94;592977;239;64751;-78
2022/12/28 09:41:27;;;;;;;;;;;;;;;24.07;54.03;98097.11;593259;239;68057;-74
2022/12/28 09:43:56;;;;;;;;;;;;;;;24.08;55.52;98098.71;592997;239;67187;-77
2022/12/28 09:46:24;;;;;;;;;;;;;;;24.07;54.94;98091.73;595527;235;64934;-73
2022/12/28 09:48:53;;;;;;;;;;;;;;;24.06;53.82;98085.56;595872;235;67056;-70
2022/12/28 09:51:22;;;;;;;;;;;;;;;24.08;52.32;98090.66;596158;236;66862;-72
2022/12/28 09:53:49;;;;;;;;;;;;;;;24.10;48.44;98083.95;599378;235;64890;-74
2022/12/28 09:56:18;;;;;;;;;;;;;;;24.13;53.46;98086.10;598328;236;67060;-78
2022/12/28 09:58:48;;;;;;;;;;;;;;;24.13;53.48;98074.56;598845;236;66711;-73
2022/12/28 10:01:16;;;;;;;;;;;;;;;24.14;53.14;98074.30;596653;236;64859;-74
2022/12/28 10:03:46;;;;;;;;;;;;;;;24.17;53.74;98080.20;595683;236;64845;-71
2022/12/28 10:06:16;;;;;;;;;;;;;;;24.17;53.74;98069.45;598666;236;66897;-73
2022/12/28 10:08:48;;;;;;;;;;;;;;;24.18;53.07;98061.14;598540;235;64944;-74
2022/12/28 10:11:16;;;;;;;;;;;;;;;24.20;52.65;98063.55;598852;235;67303;-76
2022/12/28 10:13:44;;;;;;;;;;;;;;;24.21;54.32;98059.80;598803;236;66865;-76
2022/12/28 10:16:14;;;;;;;;;;;;;;;24.23;53.96;98050.41;598982;236;65051;-76
2022/12/28 10:18:41;;;;;;;;;;;;;;;24.25;53.66;98060.88;598842;236;64996;-73
2022/12/28 10:21:10;;;;;;;;;;;;;;;24.25;53.68;98056.30;598545;236;66817;-77
2022/12/28 10:23:38;;;;;;;;;;;;;;;24.26;53.46;98047.19;598413;236;62719;-75
2022/12/28 10:26:06;;;;;;;;;;;;;;;24.28;54.42;98055.80;598828;236;64880;-78
2022/12/28 10:28:35;;;;;;;;;;;;;;;24.29;54.00;98046.65;598328;236;64843;-78
2022/12/28 10:31:10;;;;;;;;;;;;;;;24.30;55.06;98044.77;598436;235;65243;-76
2022/12/28 10:33:41;;;;;;;;;;;;;;;24.31;55.93;98046.39;598196;236;67149;-76
2022/12/28 10:36:13;;;;;;;;;;;;;;;24.33;55.43;98046.91;598841;236;66751;-74
2022/12/28 10:38:45;;;;;;;;;;;;;;;24.35;53.19;98047.45;599147;236;64883;-72
2022/12/28 10:41:19;;;;;;;;;;;;;;;24.36;53.58;98043.69;598920;235;67099;-75
2022/12/28 10:43:50;;;;;;;;;;;;;;;24.38;52.80;98038.86;598848;236;66845;-74
2022/12/28 10:46:17;;;;;;;;;;;;;;;24.40;53.84;98033.23;599162;236;64692;-73
2022/12/28 10:48:46;;;;;;;;;;;;;;;24.40;54.33;98038.60;598710;236;64907;-73
2022/12/28 10:51:16;;;;;;;;;;;;;;;24.43;53.33;98040.75;597879;235;67038;-75
2022/12/28 10:53:56;;;;;;;;;;;;;;;24.44;53.56;98045.87;597485;236;65129;-73
2022/12/28 10:56:25;;;;;;;;;;;;;;;24.46;52.16;98045.61;598019;236;67190;-74
2022/12/28 10:58:55;;;;;;;;;;;;;;;24.48;54.28;98038.09;598844;236;64960;-74
2022/12/28 11:01:27;;;;;;;;;;;;;;;24.49;52.91;98042.38;596443;236;64696;-76
2022/12/28 11:03:58;;;;;;;;;;;;;;;24.50;54.35;98033.23;598370;236;64811;-73
2022/12/28 11:06:27;;;;;;;;;;;;;;;24.51;52.06;98032.18;598936;236;64805;-74
2022/12/28 11:09:08;;;;;;;;;;;;;;;24.52;53.25;98033.78;598594;236;64977;-72
2022/12/28 11:11:36;;;;;;;;;;;;;;;24.52;54.41;98029.20;598737;236;67242;-69
2022/12/28 11:14:08;;;;;;;;;;;;;;;24.52;54.37;98031.89;598424;236;66813;-78
2022/12/28 11:16:36;;;;;;;;;;;;;;;24.53;54.33;98032.72;599093;235;65122;-75
2022/12/28 11:19:04;;;;;;;;;;;;;;;24.53;54.27;98030.84;598813;236;67530;-78
2022/12/28 11:21:33;;;;;;;;;;;;;;;24.54;53.24;98026.27;598778;236;67089;-71
2022/12/28 11:24:01;;;;;;;;;;;;;;;24.57;53.50;98028.41;599134;236;64923;-76
2022/12/28 11:26:31;;;;;;;;;;;;;;;24.57;52.39;98026.52;598573;236;67175;-70
2022/12/28 11:29:00;;;;;;;;;;;;;;;24.59;51.63;98023.58;598770;236;64886;-76
2022/12/28 11:31:30;;;;;;;;;;;;;;;24.62;53.76;98024.92;599248;236;65498;-81
2022/12/28 11:34:03;;;;;;;;;;;;;;;24.61;52.63;98015.23;598557;236;44332;-79
2022/12/28 11:36:31;;;;;;;;;;;;;;;24.63;52.48;98023.83;598788;236;65715;-73
2022/12/28 11:38:59;;;;;;;;;;;;;;;24.64;51.88;98017.40;599239;236;64914;-75
2022/12/28 11:41:40;;;;;;;;;;;;;;;24.64;52.34;98023.58;598323;236;67098;-75
2022/12/28 11:44:09;;;;;;;;;;;;;;;24.65;52.21;98013.63;598960;236;66858;-74
2022/12/28 11:46:38;;;;;;;;;;;;;;;24.66;51.85;98015.23;598765;235;62745;-74
2022/12/28 11:49:09;;;;;;;;;;;;;;;24.68;52.41;98015.77;596246;234;68081;-81
2022/12/28 11:51:41;;;;;;;;;;;;;;;24.69;51.62;98018.20;594736;236;66909;-85
2022/12/28 11:54:22;;;;;;;;;;;;;;;24.71;51.84;98017.91;591922;235;65218;-83
2022/12/28 11:56:52;;;;;;;;;;;;;;;24.72;51.49;98019.55;589410;235;65123;-75
2022/12/28 11:59:30;;;;;;;;;;;;;;;24.73;50.99;98026.52;593466;235;64840;-72
2022/12/28 12:01:58;;;;;;;;;;;;;;;24.74;49.87;98014.67;595489;238;62706;-71
2022/12/28 12:04:31;;;;;;;;;;;;;;;24.76;48.44;98015.22;595509;238;66923;-70
2022/12/28 12:07:03;;;;;;;;;;;;;;;24.77;49.14;98009.59;595565;238;66772;-79
2022/12/28 12:09:37;;;;;;;;;;;;;;;24.79;49.90;98006.61;595480;238;66162;-77
2022/12/28 12:12:03;;;;;;;;;;;;;;;24.80;49.95;98002.86;595515;234;67287;-75
2022/12/28 12:14:35;;;;;;;;;;;;;;;24.81;50.85;97999.08;595569;238;65103;-71
2022/12/28 12:17:04;;;;;;;;;;;;;;;24.80;50.24;97995.59;595507;234;64936;-77
2022/12/28 12:19:35;;;;;;;;;;;;;;;24.81;51.85;97993.71;595555;238;67081;-74
2022/12/28 12:22:06;;;;;;;;;;;;;;;24.81;51.88;97989.13;595545;238;66939;-74
2022/12/28 12:24:36;;;;;;;;;;;;;;;24.81;48.26;97980.27;595477;238;62757;-72
2022/12/28 12:27:15;;;;;;;;;;;;;;;24.82;50.04;97979.17;595570;238;67232;-73
2022/12/28 12:29:46;;;;;;;;;;;;;;;24.81;51.16;97974.89;595589;235;46794;-73
2022/12/28 12:32:25;;;;;;;;;;;;;;;24.81;51.35;97977.58;595600;236;65049;-75
2022/12/28 12:34:56;;;;;;;;;;;;;;;24.80;51.65;97973.29;595464;238;66807;-73
2022/12/28 12:37:47;;;;;;;;;;;;;;;24.79;51.17;97967.09;595622;236;44151;-71
2022/12/28 12:40:18;;;;;;;;;;;;;;;24.80;51.07;97965.23;595490;238;62643;-74
2022/12/28 12:42:56;;;;;;;;;;;;;;;24.80;50.96;97970.60;595555;236;48194;-72
2022/12/28 12:45:37;;;;;;;;;;;;;;;24.81;51.48;97967.63;595560;238;66785;-74
2022/12/28 12:48:24;;;;;;;;;;;;;;;24.85;50.99;97969.77;596233;235;65148;-75
2022/12/28 12:51:04;;;;;;;;;;;;;;;24.86;50.72;97957.95;600583;236;65069;-78
2022/12/28 12:53:33;;;;;;;;;;;;;;;24.88;51.50;97953.91;600679;236;65015;-76
2022/12/28 12:56:18;;;;;;;;;;;;;;;24.90;48.55;97954.42;600733;236;65092;-81
2022/12/28 12:58:48;;;;;;;;;;;;;;;24.92;50.88;97957.64;600636;236;66808;-75
2022/12/28 13:01:26;;;;;;;;;;;;;;;24.95;51.50;97957.09;600534;236;66734;-76
2022/12/28 13:03:55;;;;;;;;;;;;;;;24.96;50.73;97957.89;600722;236;62960;-72
2022/12/28 13:06:26;;;;;;;;;;;;;;;24.97;50.05;97957.63;600636;236;48920;-69
2022/12/28 13:08:55;;;;;;;;;;;;;;;25.00;50.94;97958.97;600629;236;66725;-72
2022/12/28 13:11:23;;;;;;;;;;;;;;;25.00;50.03;97962.46;600732;236;64858;-75
2022/12/28 13:13:52;;;;;;;;;;;;;;;25.03;49.30;97958.42;600622;236;64690;-72
2022/12/28 13:16:24;;;;;;;;;;;;;;;25.05;50.61;97952.78;600712;236;66697;-68
2022/12/28 13:18:53;;;;;;;;;;;;;;;25.08;45.50;97960.30;600711;236;62779;-73
2022/12/28 13:21:22;;;;;;;;;;;;;;;25.10;46.21;97963.49;600575;236;67003;-73
2022/12/28 13:23:50;;;;;;;;;;;;;;;25.13;48.85;97953.02;600718;236;64378;-73
2022/12/28 13:26:19;;;;;;;;;;;;;;;25.15;49.54;97958.13;600676;236;65060;-68